首页
METAR-TAF:

METAR-TAF

机场 :

Coffeyville, 堪薩斯州, 美国

纬度: 37-05-28N, 经度: 095-33-59W, 海拔: 229米

当前天气观测

该预报发布于44分钟前的14:52 UTC
风速10节,风向西南
温度 33°C
湿度 53%
气压 1013 hPa
能見度: 16.1公里
天空无云

METAR: KCFV 241452Z AUTO 22010KT 10SM CLR 33/22 A2991 RMK AO2 SLP118 T03330217 50005 $

时间: 10:36 (15:36 UTC)


TAF: 丢失

超过4000个机场的气象观测和天气预报(METAR&TAF报告)。

可查询的气象台以黄色和红色小点在地图上表示。

将鼠标移到小点上方,可查看气象台名称。

然后点击查看天气观测和预报。

如需切换地图:点击带黑十字的绿色按钮放大地图;点击带横线的绿色按钮缩小地图;或者点击绿色箭头查看邻近地区的地图。


METAR-TAF: